Time,TemperatureF,DewpointF,PressureIn,WindDirection,WindDirectionDegrees,WindSpeedMPH,WindSpeedGustMPH,Humidity,HourlyPrecipIn,Conditions,Clouds,dailyrainin,SoftwareType,DateUTC
2013-03-05 00:01:00,3.0,0.0,-100.00,ESE,105,3.0,6.0,86,0.00,,,-99.99,,2013-03-05 07:01:00,
2013-03-05 00:11:00,3.0,0.0,-100.00,ESE,115,2.0,6.0,86,0.00,,,-99.99,,2013-03-05 07:11:00,
2013-03-05 00:21:00,2.0,-1.0,-100.00,NNE,25,4.0,8.0,86,0.00,,,-99.99,,2013-03-05 07:21:00,
2013-03-05 00:31:00,4.0,1.0,-100.00,NNE,15,6.0,14.0,86,0.00,,,-99.99,,2013-03-05 07:31:00,
2013-03-05 00:41:00,4.0,1.0,-100.00,NE,40,7.0,11.0,86,0.00,,,-99.99,,2013-03-05 07:41:00,
2013-03-05 00:51:00,4.0,0.0,-100.00,NE,45,7.0,10.0,85,0.00,,,-99.99,,2013-03-05 07:51:00,
2013-03-05 01:02:00,4.0,0.0,-100.00,NNE,25,4.0,11.0,85,0.00,,,-99.99,,2013-03-05 08:02:00,
2013-03-05 01:11:00,4.0,0.0,-100.00,NNE,30,7.0,12.0,85,0.00,,,-99.99,,2013-03-05 08:11:00,
2013-03-05 01:21:00,4.0,0.0,-100.00,NNE,30,9.0,12.0,84,0.00,,,-99.99,,2013-03-05 08:21:00,
2013-03-05 01:31:00,4.0,0.0,-100.00,NNE,25,7.0,14.0,83,0.00,,,-99.99,,2013-03-05 08:31:00,
2013-03-05 01:41:00,4.0,1.0,-100.00,NNE,30,7.0,13.0,83,0.00,,,-99.99,,2013-03-05 08:41:00,
2013-03-05 01:52:00,5.0,0.0,-100.00,NNE,25,7.0,14.0,82,0.00,,,-99.99,,2013-03-05 08:52:00,
2013-03-05 02:01:00,5.0,1.0,-100.00,NNE,30,7.0,13.0,81,0.00,,,-99.99,,2013-03-05 09:01:00,
2013-03-05 02:11:00,6.0,1.0,-100.00,NNE,30,9.0,13.0,80,0.00,,,-99.99,,2013-03-05 09:11:00,
2013-03-05 02:21:00,5.0,0.0,-100.00,NNE,30,6.0,13.0,79,0.00,,,-99.99,,2013-03-05 09:21:00,
2013-03-05 02:31:00,5.0,0.0,-100.00,NNE,25,5.0,9.0,79,0.00,,,-99.99,,2013-03-05 09:31:00,
2013-03-05 02:42:00,6.0,0.0,-100.00,NNE,25,7.0,11.0,78,0.00,,,-99.99,,2013-03-05 09:42:00,
2013-03-05 02:52:00,6.0,0.0,-100.00,NNE,30,7.0,12.0,77,0.00,,,-99.99,,2013-03-05 09:52:00,
2013-03-05 03:01:00,5.0,0.0,-100.00,NNE,20,8.0,13.0,77,0.00,,,-99.99,,2013-03-05 10:01:00,
2013-03-05 03:11:00,6.0,0.0,-100.00,NNE,15,7.0,13.0,75,0.00,,,-99.99,,2013-03-05 10:11:00,
2013-03-05 03:21:00,6.0,-1.0,-100.00,North,0,9.0,15.0,74,0.00,,,-99.99,,2013-03-05 10:21:00,
2013-03-05 03:32:00,6.0,-1.0,-100.00,NNE,20,7.0,12.0,72,0.00,,,-99.99,,2013-03-05 10:32:00,
2013-03-05 03:42:00,5.0,-2.0,-100.00,NNE,20,6.0,12.0,72,0.00,,,-99.99,,2013-03-05 10:42:00,
2013-03-05 03:51:00,5.0,-2.0,-100.00,North,10,9.0,12.0,71,0.00,,,-99.99,,2013-03-05 10:51:00,
2013-03-05 04:01:00,6.0,-2.0,-100.00,North,0,9.0,12.0,69,0.00,,,-99.99,,2013-03-05 11:01:00,
2013-03-05 04:11:00,6.0,-2.0,-100.00,NNE,15,7.0,13.0,67,0.00,,,-99.99,,2013-03-05 11:11:00,
2013-03-05 04:22:00,6.0,-3.0,-100.00,North,5,9.0,14.0,65,0.00,,,-99.99,,2013-03-05 11:22:00,
2013-03-05 04:32:00,7.0,-3.0,-100.00,North,0,9.0,14.0,62,0.00,,,-99.99,,2013-03-05 11:32:00,
2013-03-05 04:42:00,6.0,-5.0,-100.00,NNE,20,9.0,12.0,59,0.00,,,-99.99,,2013-03-05 11:42:00,
2013-03-05 04:52:00,6.0,-6.0,-100.00,NE,40,7.0,12.0,57,0.00,,,-99.99,,2013-03-05 11:52:00,
2013-03-05 05:02:00,6.0,-6.0,-100.00,NE,35,6.0,11.0,57,0.00,,,-99.99,,2013-03-05 12:02:00,
2013-03-05 05:12:00,6.0,-7.0,-100.00,NE,45,6.0,9.0,56,0.00,,,-99.99,,2013-03-05 12:12:00,
2013-03-05 05:22:00,7.0,-7.0,-100.00,NE,45,6.0,10.0,53,0.00,,,-99.99,,2013-03-05 12:22:00,
2013-03-05 05:32:00,5.0,-8.0,-100.00,South,185,1.0,8.0,54,0.00,,,-99.99,,2013-03-05 12:32:00,
2013-03-05 05:42:00,6.0,-8.0,-100.00,ENE,60,4.0,11.0,52,0.00,,,-99.99,,2013-03-05 12:42:00,
2013-03-05 05:52:00,6.0,-8.0,-100.00,ENE,60,4.0,6.0,50,0.00,,,-99.99,,2013-03-05 12:52:00,
2013-03-05 06:02:00,3.0,-9.0,-100.00,NNE,25,2.0,6.0,56,0.00,,,-99.99,,2013-03-05 13:02:00,
2013-03-05 06:11:00,4.0,-9.0,-100.00,ESE,110,2.0,7.0,54,0.00,,,-99.99,,2013-03-05 13:11:00,
2013-03-05 06:21:00,4.0,-9.0,-100.00,East,95,3.0,7.0,53,0.00,,,-99.99,,2013-03-05 13:21:00,
2013-03-05 06:32:00,5.0,-9.0,-100.00,SSE,165,2.0,6.0,51,0.00,,,-99.99,,2013-03-05 13:32:00,
2013-03-05 06:42:00,3.0,-9.0,-100.00,SE,130,5.0,7.0,55,0.00,,,-99.99,,2013-03-05 13:42:00,
2013-03-05 06:52:00,3.0,-9.0,-100.00,South,170,4.0,7.0,57,0.00,,,-99.99,,2013-03-05 13:52:00,
2013-03-05 07:02:00,6.0,-9.0,-100.00,East,95,3.0,7.0,50,0.00,,,-99.99,,2013-03-05 14:02:00,
2013-03-05 07:11:00,5.0,-9.0,-100.00,East,100,4.0,6.0,51,0.00,,,-99.99,,2013-03-05 14:11:00,
2013-03-05 07:21:00,7.0,-9.0,-100.00,SE,125,2.0,7.0,47,0.00,,,-99.99,,2013-03-05 14:21:00,
2013-03-05 07:32:00,4.0,-9.0,-100.00,SE,135,2.0,6.0,53,0.00,,,-99.99,,2013-03-05 14:32:00,
2013-03-05 07:42:00,3.0,-9.0,-100.00,SSE,155,4.0,6.0,57,0.00,,,-99.99,,2013-03-05 14:42:00,
2013-03-05 07:52:00,5.0,-9.0,-100.00,SSE,165,5.0,7.0,51,0.00,,,-99.99,,2013-03-05 14:52:00,
2013-03-05 08:01:00,8.0,-8.0,-100.00,NNE,20,1.0,7.0,47,0.00,,,-99.99,,2013-03-05 15:01:00,
2013-03-05 08:11:00,8.0,-9.0,-100.00,SSE,155,6.0,7.0,45,0.00,,,-99.99,,2013-03-05 15:11:00,
2013-03-05 08:21:00,8.0,-9.0,-100.00,SSE,165,4.0,7.0,45,0.00,,,-99.99,,2013-03-05 15:21:00,
2013-03-05 08:32:00,10.0,-7.0,-100.00,SE,145,4.0,7.0,46,0.00,,,-99.99,,2013-03-05 15:32:00,
2013-03-05 08:42:00,12.0,-5.0,-100.00,SE,145,3.0,6.0,44,0.00,,,-99.99,,2013-03-05 15:42:00,
2013-03-05 08:51:00,13.0,-4.0,-100.00,South,175,6.0,8.0,44,0.00,,,-99.99,,2013-03-05 15:51:00,
2013-03-05 09:01:00,15.0,-5.0,-100.00,ESE,110,2.0,7.0,39,0.00,,,-99.99,,2013-03-05 16:01:00,
2013-03-05 09:11:00,16.0,-6.0,-100.00,NE,45,4.0,9.0,36,0.00,,,-99.99,,2013-03-05 16:11:00,
2013-03-05 09:21:00,17.0,-7.0,-100.00,ENE,70,4.0,11.0,33,0.00,,,-99.99,,2013-03-05 16:21:00,
2013-03-05 09:32:00,17.0,-7.0,-100.00,ENE,65,4.0,11.0,32,0.00,,,-99.99,,2013-03-05 16:32:00,
2013-03-05 09:42:00,18.0,-7.0,-100.00,West,265,1.0,11.0,31,0.00,,,-99.99,,2013-03-05 16:42:00,
2013-03-05 09:51:00,18.0,-7.0,-100.00,East,95,2.0,7.0,32,0.00,,,-99.99,,2013-03-05 16:51:00,
2013-03-05 10:01:00,18.0,-7.0,-100.00,ENE,60,2.0,9.0,31,0.00,,,-99.99,,2013-03-05 17:01:00,
2013-03-05 10:11:00,19.0,-6.0,-100.00,East,90,2.0,8.0,32,0.00,,,-99.99,,2013-03-05 17:11:00,
2013-03-05 10:21:00,19.0,-6.0,-100.00,North,0,4.0,9.0,32,0.00,,,-99.99,,2013-03-05 17:21:00,
2013-03-05 10:32:00,22.0,-3.0,-100.00,ESE,105,1.0,11.0,33,0.00,,,-99.99,,2013-03-05 17:32:00,
2013-03-05 10:42:00,21.0,-3.0,-100.00,East,95,4.0,7.0,33,0.00,,,-99.99,,2013-03-05 17:42:00,
2013-03-05 10:52:00,22.0,-3.0,-100.00,SE,135,4.0,10.0,33,0.00,,,-99.99,,2013-03-05 17:52:00,
2013-03-05 11:01:00,21.0,-3.0,-100.00,ENE,65,2.0,8.0,33,0.00,,,-99.99,,2013-03-05 18:01:00,
2013-03-05 11:11:00,22.0,-4.0,-100.00,WSW,250,1.0,9.0,31,0.00,,,-99.99,,2013-03-05 18:11:00,
2013-03-05 11:21:00,22.0,-4.0,-100.00,NE,45,5.0,11.0,31,0.00,,,-99.99,,2013-03-05 18:21:00,
2013-03-05 11:32:00,23.0,-3.0,-100.00,SW,220,3.0,8.0,31,0.00,,,-99.99,,2013-03-05 18:32:00,
2013-03-05 11:42:00,24.0,-3.0,-100.00,ENE,65,3.0,9.0,30,0.00,,,-99.99,,2013-03-05 18:42:00,
2013-03-05 11:52:00,24.0,-3.0,-100.00,SE,125,3.0,12.0,29,0.00,,,-99.99,,2013-03-05 18:52:00,
2013-03-05 12:01:00,23.0,-5.0,-100.00,North,5,3.0,11.0,28,0.00,,,-99.99,,2013-03-05 19:01:00,
2013-03-05 12:11:00,25.0,-5.0,-100.00,SSE,150,5.0,9.0,27,0.00,,,-99.99,,2013-03-05 19:11:00,
2013-03-05 12:21:00,25.0,-5.0,-100.00,SSE,155,2.0,11.0,25,0.00,,,-99.99,,2013-03-05 19:21:00,
2013-03-05 12:32:00,26.0,-6.0,-100.00,West,265,2.0,9.0,24,0.00,,,-99.99,,2013-03-05 19:32:00,
2013-03-05 12:42:00,27.0,-6.0,-100.00,ESE,115,1.0,10.0,23,0.00,,,-99.99,,2013-03-05 19:42:00,
2013-03-05 12:51:00,27.0,-6.0,-100.00,North,0,2.0,9.0,22,0.00,,,-99.99,,2013-03-05 19:51:00,
2013-03-05 13:01:00,29.0,-5.0,-100.00,SSW,210,2.0,10.0,21,0.00,,,-99.99,,2013-03-05 20:01:00,
2013-03-05 13:11:00,28.0,-7.0,-100.00,SSW,195,1.0,9.0,21,0.00,,,-99.99,,2013-03-05 20:11:00,
2013-03-05 13:21:00,28.0,-8.0,-100.00,SE,140,2.0,10.0,20,0.00,,,-99.99,,2013-03-05 20:21:00,
2013-03-05 13:32:00,28.0,-7.0,-100.00,East,100,3.0,7.0,20,0.00,,,-99.99,,2013-03-05 20:32:00,
2013-03-05 13:42:00,30.0,-5.0,-100.00,SSE,160,1.0,8.0,21,0.00,,,-99.99,,2013-03-05 20:42:00,
2013-03-05 13:52:00,31.0,-3.0,-100.00,South,175,4.0,9.0,21,0.00,,,-99.99,,2013-03-05 20:52:00,
2013-03-05 14:02:00,29.0,-6.0,-100.00,SSE,155,4.0,11.0,21,0.00,,,-99.99,,2013-03-05 21:02:00,
2013-03-05 14:11:00,30.0,-5.0,-100.00,SSE,150,6.0,12.0,21,0.00,,,-99.99,,2013-03-05 21:11:00,
2013-03-05 14:21:00,30.0,-5.0,-100.00,SSE,155,3.0,11.0,21,0.00,,,-99.99,,2013-03-05 21:21:00,
2013-03-05 14:32:00,30.0,-5.0,-100.00,SSE,160,6.0,10.0,21,0.00,,,-99.99,,2013-03-05 21:32:00,
2013-03-05 14:42:00,29.0,-5.0,-100.00,SE,135,9.0,12.0,21,0.00,,,-99.99,,2013-03-05 21:42:00,
2013-03-05 14:52:00,30.0,-5.0,-100.00,South,180,4.0,9.0,21,0.00,,,-99.99,,2013-03-05 21:52:00,
2013-03-05 15:01:00,30.0,-5.0,-100.00,South,175,7.0,11.0,21,0.00,,,-99.99,,2013-03-05 22:01:00,
2013-03-05 15:11:00,31.0,-5.0,-100.00,SSW,200,6.0,11.0,20,0.00,,,-99.99,,2013-03-05 22:11:00,
2013-03-05 15:21:00,30.0,-6.0,-100.00,South,175,6.0,11.0,20,0.00,,,-99.99,,2013-03-05 22:21:00,
2013-03-05 15:32:00,30.0,-6.0,-100.00,SSE,155,5.0,10.0,19,0.00,,,-99.99,,2013-03-05 22:32:00,
2013-03-05 15:42:00,31.0,-7.0,-100.00,SE,125,2.0,6.0,18,0.00,,,-99.99,,2013-03-05 22:42:00,
2013-03-05 15:52:00,30.0,-8.0,-100.00,SE,130,7.0,9.0,18,0.00,,,-99.99,,2013-03-05 22:52:00,
2013-03-05 16:01:00,30.0,-9.0,-100.00,East,90,2.0,9.0,17,0.00,,,-99.99,,2013-03-05 23:01:00,
2013-03-05 16:11:00,30.0,-9.0,-100.00,SSE,160,3.0,7.0,18,0.00,,,-99.99,,2013-03-05 23:11:00,
2013-03-05 16:21:00,30.0,-9.0,-100.00,NE,35,3.0,6.0,17,0.00,,,-99.99,,2013-03-05 23:21:00,
2013-03-05 16:32:00,29.0,-10.0,-100.00,North,0,2.0,10.0,16,0.00,,,-99.99,,2013-03-05 23:32:00,
2013-03-05 16:42:00,28.0,-11.0,-100.00,South,180,2.0,7.0,17,0.00,,,-99.99,,2013-03-05 23:42:00,
2013-03-05 16:52:00,27.0,-11.0,-100.00,East,100,2.0,7.0,17,0.00,,,-99.99,,2013-03-05 23:52:00,
2013-03-05 17:01:00,27.0,-11.0,-100.00,North,0,1.0,5.0,17,0.00,,,-99.99,,2013-03-06 00:01:00,
2013-03-05 17:11:00,27.0,-10.0,-100.00,NE,40,4.0,7.0,18,0.00,,,-99.99,,2013-03-06 00:11:00,
2013-03-05 17:21:00,27.0,-10.0,-100.00,ENE,65,1.0,8.0,19,0.00,,,-99.99,,2013-03-06 00:21:00,
2013-03-05 17:32:00,26.0,-9.0,-100.00,East,100,2.0,5.0,20,0.00,,,-99.99,,2013-03-06 00:32:00,
2013-03-05 17:42:00,26.0,-10.0,-100.00,NNE,25,1.0,7.0,20,0.00,,,-99.99,,2013-03-06 00:42:00,
2013-03-05 17:51:00,25.0,-10.0,-100.00,SSW,200,1.0,6.0,20,0.00,,,-99.99,,2013-03-06 00:51:00,
2013-03-05 18:02:00,24.0,-10.0,-100.00,SE,135,2.0,7.0,20,0.00,,,-99.99,,2013-03-06 01:02:00,
2013-03-05 18:11:00,22.0,-10.0,-100.00,SE,145,6.0,9.0,22,0.00,,,-99.99,,2013-03-06 01:11:00,
2013-03-05 18:21:00,21.0,-10.0,-100.00,South,190,6.0,9.0,24,0.00,,,-99.99,,2013-03-06 01:21:00,
2013-03-05 18:32:00,20.0,-10.0,-100.00,South,190,6.0,10.0,25,0.00,,,-99.99,,2013-03-06 01:32:00,
2013-03-05 18:41:00,20.0,-10.0,-100.00,South,175,6.0,12.0,25,0.00,,,-99.99,,2013-03-06 01:41:00,
2013-03-05 18:51:00,20.0,-10.0,-100.00,SSE,150,9.0,12.0,25,0.00,,,-99.99,,2013-03-06 01:51:00,
2013-03-05 19:01:00,20.0,-10.0,-100.00,South,180,8.0,11.0,25,0.00,,,-99.99,,2013-03-06 02:01:00,
2013-03-05 19:11:00,20.0,-9.0,-100.00,South,170,12.0,14.0,25,0.00,,,-99.99,,2013-03-06 02:11:00,
2013-03-05 19:22:00,19.0,-9.0,-100.00,South,170,11.0,12.0,28,0.00,,,-99.99,,2013-03-06 02:22:00,
2013-03-05 19:32:00,18.0,-8.0,-100.00,South,175,7.0,10.0,30,0.00,,,-99.99,,2013-03-06 02:32:00,
2013-03-05 19:42:00,17.0,-7.0,-100.00,South,180,7.0,10.0,33,0.00,,,-99.99,,2013-03-06 02:42:00,
2013-03-05 19:52:00,17.0,-6.0,-100.00,South,175,7.0,9.0,36,0.00,,,-99.99,,2013-03-06 02:52:00,
2013-03-05 20:01:00,17.0,-4.0,-100.00,SSE,165,7.0,11.0,38,0.00,,,-99.99,,2013-03-06 03:01:00,
2013-03-05 20:11:00,18.0,-2.0,-100.00,South,175,9.0,10.0,40,0.00,,,-99.99,,2013-03-06 03:11:00,
2013-03-05 20:21:00,17.0,-1.0,-100.00,South,170,9.0,11.0,42,0.00,,,-99.99,,2013-03-06 03:21:00,
2013-03-05 20:32:00,19.0,-1.0,-100.00,South,175,9.0,14.0,41,0.00,,,-99.99,,2013-03-06 03:32:00,
2013-03-05 20:42:00,18.0,-1.0,-100.00,South,170,9.0,11.0,42,0.00,,,-99.99,,2013-03-06 03:42:00,
2013-03-05 20:52:00,19.0,0.0,-100.00,South,185,7.0,11.0,42,0.00,,,-99.99,,2013-03-06 03:52:00,
2013-03-05 21:02:00,19.0,0.0,-100.00,SSE,165,7.0,12.0,42,0.00,,,-99.99,,2013-03-06 04:02:00,
2013-03-05 21:11:00,19.0,0.0,-100.00,South,180,8.0,14.0,43,0.00,,,-99.99,,2013-03-06 04:11:00,
2013-03-05 21:21:00,19.0,0.0,-100.00,South,170,9.0,15.0,44,0.00,,,-99.99,,2013-03-06 04:21:00,
2013-03-05 21:32:00,19.0,1.0,-100.00,South,180,9.0,14.0,44,0.00,,,-99.99,,2013-03-06 04:32:00,
2013-03-05 21:42:00,18.0,1.0,-100.00,South,170,10.0,12.0,45,0.00,,,-99.99,,2013-03-06 04:42:00,
2013-03-05 21:51:00,19.0,1.0,-100.00,South,175,13.0,15.0,45,0.00,,,-99.99,,2013-03-06 04:51:00,
2013-03-05 22:01:00,18.0,1.0,-100.00,South,180,11.0,15.0,46,0.00,,,-99.99,,2013-03-06 05:01:00,
2013-03-05 22:11:00,18.0,1.0,-100.00,South,175,11.0,13.0,46,0.00,,,-99.99,,2013-03-06 05:11:00,
2013-03-05 22:22:00,18.0,1.0,-100.00,South,175,11.0,14.0,46,0.00,,,-99.99,,2013-03-06 05:22:00,
2013-03-05 22:32:00,18.0,1.0,-100.00,South,175,11.0,14.0,46,0.00,,,-99.99,,2013-03-06 05:32:00,
2013-03-05 22:42:00,18.0,1.0,-100.00,South,175,9.0,13.0,46,0.00,,,-99.99,,2013-03-06 05:42:00,
2013-03-05 22:52:00,18.0,1.0,-100.00,South,170,9.0,12.0,46,0.00,,,-99.99,,2013-03-06 05:52:00,
2013-03-05 23:02:00,17.0,0.0,-100.00,South,170,9.0,11.0,46,0.00,,,-99.99,,2013-03-06 06:02:00,
2013-03-05 23:11:00,17.0,-1.0,-100.00,South,170,8.0,12.0,46,0.00,,,-99.99,,2013-03-06 06:11:00,
2013-03-05 23:22:00,16.0,0.0,-100.00,South,170,9.0,11.0,47,0.00,,,-99.99,,2013-03-06 06:22:00,
2013-03-05 23:32:00,20.0,2.0,-100.00,SSE,160,11.0,14.0,44,0.00,,,-99.99,,2013-03-06 06:32:00,
2013-03-05 23:42:00,19.0,0.0,-100.00,South,170,9.0,15.0,43,0.00,,,-99.99,,2013-03-06 06:42:00,
2013-03-05 23:52:00,19.0,0.0,-100.00,SSE,165,11.0,14.0,43,0.00,,,-99.99,,2013-03-06 06:52:00,